createdAt,value
2023-03-02T00:00:16.156Z,69.76
2023-03-02T00:04:45.099Z,70.75
2023-03-02T00:09:00.745Z,71.81
2023-03-02T00:13:13.827Z,72.37
2023-03-02T00:17:28.069Z,73.43
2023-03-02T00:21:41.072Z,74.63
2023-03-02T00:25:53.055Z,75.22
2023-03-02T00:30:06.224Z,76.34
2023-03-02T00:34:17.909Z,75.50
2023-03-02T00:38:29.789Z,77.34
2023-03-02T00:42:41.476Z,78.17
2023-03-02T00:46:53.224Z,78.66
2023-03-02T00:51:05.570Z,79.29
2023-03-02T00:55:17.330Z,80.40
2023-03-02T00:59:29.064Z,80.90
2023-03-02T01:03:47.997Z,82.02
2023-03-02T01:08:00.126Z,81.92
2023-03-02T01:12:12.303Z,82.09
2023-03-02T01:16:23.972Z,82.28
2023-03-02T01:20:35.732Z,81.88
2023-03-02T01:24:47.464Z,82.00
2023-03-02T01:28:59.141Z,82.97
2023-03-02T01:33:10.818Z,83.15
2023-03-02T01:37:23.131Z,83.04
2023-03-02T01:41:34.894Z,82.60
2023-03-02T01:45:46.527Z,83.17
2023-03-02T01:50:06.831Z,83.41
2023-03-02T01:54:23.570Z,83.22
2023-03-02T01:58:41.824Z,83.23
2023-03-02T02:03:08.739Z,83.35
2023-03-02T02:07:20.569Z,82.85
2023-03-02T02:11:32.351Z,82.90
2023-03-02T02:15:44.375Z,83.58
2023-03-02T02:20:12.648Z,82.78
2023-03-02T02:24:41.441Z,82.53
2023-03-02T02:29:22.696Z,82.40
2023-03-02T02:33:37.182Z,82.02
2023-03-02T02:37:56.336Z,81.85
2023-03-02T02:42:14.890Z,81.62
2023-03-02T02:46:26.838Z,81.46
2023-03-02T02:50:44.618Z,81.18
2023-03-02T02:54:58.868Z,81.24
2023-03-02T02:59:19.587Z,81.08
2023-03-02T03:03:35.242Z,81.04
2023-03-02T03:07:50.457Z,81.16
2023-03-02T03:12:17.829Z,81.91
2023-03-02T03:16:31.997Z,81.99
2023-03-02T03:20:45.392Z,81.68
2023-03-02T03:24:58.564Z,82.43
2023-03-02T03:29:11.029Z,82.54
2023-03-02T03:33:23.384Z,83.12
2023-03-02T03:37:35.839Z,83.45
2023-03-02T03:41:47.532Z,84.25
2023-03-02T03:45:59.571Z,84.27
2023-03-02T03:50:11.898Z,84.66
2023-03-02T03:54:24.887Z,84.55
2023-03-02T03:58:36.793Z,84.84
2023-03-02T04:02:48.589Z,84.86
2023-03-02T04:07:00.863Z,85.04
2023-03-02T04:11:13.467Z,84.96
2023-03-02T04:15:25.360Z,84.61
2023-03-02T04:19:37.499Z,85.06
2023-03-02T04:23:49.742Z,85.32
2023-03-02T04:28:01.477Z,85.27
2023-03-02T04:32:18.035Z,85.76
2023-03-02T04:36:37.815Z,85.61
2023-03-02T04:40:51.842Z,85.42
2023-03-02T04:45:03.630Z,85.53
2023-03-02T04:49:17.186Z,84.89
2023-03-02T04:53:28.821Z,84.57
2023-03-02T04:57:40.504Z,84.75
2023-03-02T05:01:54.642Z,84.36
2023-03-02T05:06:06.359Z,84.30
2023-03-02T05:10:19.619Z,84.59
2023-03-02T05:14:31.455Z,83.88
2023-03-02T05:18:43.281Z,83.83
2023-03-02T05:22:56.028Z,83.33
2023-03-02T05:27:07.683Z,83.65
2023-03-02T05:31:23.289Z,83.58
2023-03-02T05:35:35.822Z,83.22
2023-03-02T05:39:47.509Z,83.10
2023-03-02T05:43:59.139Z,83.16
2023-03-02T05:48:12.523Z,83.47
2023-03-02T05:52:24.199Z,82.92
2023-03-02T05:56:35.990Z,83.14
2023-03-02T06:00:48.657Z,82.71
2023-03-02T06:05:00.245Z,83.23
2023-03-02T06:09:11.847Z,82.68
2023-03-02T06:13:23.446Z,83.08
2023-03-02T06:17:35.106Z,83.31
2023-03-02T06:21:46.764Z,82.92
2023-03-02T06:25:59.046Z,82.66
2023-03-02T06:30:16.054Z,82.91
2023-03-02T06:34:29.446Z,82.66
2023-03-02T06:38:41.071Z,82.77
2023-03-02T06:42:52.758Z,82.53
2023-03-02T06:47:04.389Z,82.24
2023-03-02T06:51:16.026Z,82.24
2023-03-02T06:55:27.933Z,81.94
2023-03-02T06:59:39.609Z,81.66
2023-03-02T07:03:51.457Z,81.58
2023-03-02T07:08:03.514Z,81.27
2023-03-02T07:12:15.464Z,81.44
2023-03-02T07:16:27.318Z,81.14
2023-03-02T07:20:39.579Z,80.93
2023-03-02T07:24:51.273Z,80.83
2023-03-02T07:29:02.932Z,80.31
2023-03-02T07:33:14.573Z,79.99
2023-03-02T07:37:26.395Z,79.53
2023-03-02T07:41:38.072Z,78.84
2023-03-02T07:45:49.647Z,78.42
2023-03-02T07:50:01.215Z,77.01
2023-03-02T07:54:13.024Z,76.93
2023-03-02T07:58:24.679Z,73.99
2023-03-02T08:02:36.336Z,69.87
2023-03-02T08:06:48.047Z,65.14
2023-03-02T08:11:15.018Z,61.40
2023-03-02T08:15:26.720Z,59.35
2023-03-02T08:19:38.388Z,57.98
2023-03-02T08:23:50.696Z,54.56
2023-03-02T08:28:02.408Z,52.83
2023-03-02T08:32:14.150Z,50.63
2023-03-02T08:36:26.033Z,48.98
2023-03-02T08:40:37.701Z,48.13
2023-03-02T08:44:49.374Z,46.13
2023-03-02T08:49:01.135Z,44.96
2023-03-02T08:53:12.763Z,44.38
2023-03-02T08:57:24.392Z,43.64
2023-03-02T09:02:01.534Z,42.15
2023-03-02T09:06:13.486Z,41.09
2023-03-02T09:10:25.266Z,40.62
2023-03-02T09:14:37.072Z,40.19
2023-03-02T09:18:48.729Z,39.98
2023-03-02T09:23:00.421Z,39.59
2023-03-02T09:27:12.043Z,39.01
2023-03-02T09:31:27.356Z,38.37
2023-03-02T09:35:40.179Z,38.35
2023-03-02T09:39:51.955Z,38.48
2023-03-02T09:44:15.822Z,38.08
2023-03-02T09:48:39.646Z,37.27
2023-03-02T09:52:58.992Z,37.08
2023-03-02T09:57:26.798Z,36.87
2023-03-02T10:01:43.834Z,36.36
2023-03-02T10:05:56.467Z,36.58
2023-03-02T10:10:23.311Z,36.42
2023-03-02T10:14:45.299Z,35.65
2023-03-02T10:19:15.762Z,35.40
2023-03-02T10:23:46.597Z,34.63
2023-03-02T10:28:21.075Z,33.78
2023-03-02T10:32:42.004Z,32.10
2023-03-02T10:36:53.697Z,32.75
2023-03-02T10:41:10.053Z,32.28
2023-03-02T10:45:28.385Z,31.91
2023-03-02T10:49:42.807Z,32.58
2023-03-02T10:54:11.330Z,32.23
2023-03-02T10:58:23.834Z,32.21
2023-03-02T11:02:37.551Z,31.61
2023-03-02T11:06:49.371Z,31.94
2023-03-02T11:11:04.104Z,32.01
2023-03-02T11:15:31.871Z,31.95
2023-03-02T11:19:43.843Z,32.02
2023-03-02T11:24:10.903Z,32.33
2023-03-02T11:28:41.096Z,32.48
2023-03-02T11:33:04.144Z,33.00
2023-03-02T11:37:21.116Z,33.46
2023-03-02T11:41:34.718Z,33.56
2023-03-02T11:45:51.873Z,33.88
2023-03-02T11:50:05.821Z,33.93
2023-03-02T11:54:41.158Z,33.95
2023-03-02T11:59:04.745Z,34.46
2023-03-02T12:03:16.364Z,34.81
2023-03-02T12:07:28.175Z,34.69
2023-03-02T12:11:41.204Z,34.93
2023-03-02T12:15:53.061Z,34.20
2023-03-02T12:20:07.715Z,34.92
2023-03-02T12:24:29.169Z,34.34
2023-03-02T12:28:43.989Z,34.56
2023-03-02T12:33:10.848Z,34.45
2023-03-02T12:37:37.795Z,34.53
2023-03-02T12:42:01.506Z,34.53
2023-03-02T12:46:33.445Z,34.35
2023-03-02T12:50:47.304Z,34.84
2023-03-02T12:55:10.055Z,35.64
2023-03-02T12:59:25.209Z,35.92
2023-03-02T13:03:45.805Z,36.50
2023-03-02T13:08:01.088Z,37.24
2023-03-02T13:12:14.286Z,37.80
2023-03-02T13:16:28.845Z,37.81
2023-03-02T13:20:40.735Z,37.88
2023-03-02T13:25:03.679Z,37.87
2023-03-02T13:29:23.107Z,38.23
2023-03-02T13:33:43.688Z,38.74
2023-03-02T13:38:00.313Z,39.08
2023-03-02T13:42:26.532Z,40.03
2023-03-02T13:46:41.047Z,40.41
2023-03-02T13:50:57.239Z,40.29
2023-03-02T13:55:13.990Z,41.12
2023-03-02T13:59:25.819Z,41.37
2023-03-02T14:03:37.623Z,41.34
2023-03-02T14:07:49.366Z,41.85
2023-03-02T14:12:01.155Z,41.68
2023-03-02T14:16:14.145Z,42.34
2023-03-02T14:20:25.844Z,42.24
2023-03-02T14:24:37.488Z,42.29
2023-03-02T14:28:59.900Z,42.66
2023-03-02T14:33:17.698Z,42.69
2023-03-02T14:37:30.252Z,43.47
2023-03-02T14:41:52.973Z,44.33
2023-03-02T14:46:05.428Z,44.39
2023-03-02T14:50:17.361Z,44.75
2023-03-02T14:54:54.038Z,45.10
2023-03-02T14:59:05.784Z,44.92
2023-03-02T15:03:28.226Z,45.13
2023-03-02T15:07:40.891Z,45.84
2023-03-02T15:11:52.555Z,45.97
2023-03-02T15:16:04.377Z,46.22
2023-03-02T15:20:16.701Z,46.46
2023-03-02T15:24:31.401Z,46.81
2023-03-02T15:28:47.122Z,46.62
2023-03-02T15:32:59.601Z,48.10
2023-03-02T15:37:11.931Z,48.67
2023-03-02T15:41:23.652Z,48.62
2023-03-02T15:45:35.236Z,48.31
2023-03-02T15:49:46.887Z,48.54
2023-03-02T15:54:24.639Z,48.72
2023-03-02T15:58:36.573Z,50.08
2023-03-02T16:02:49.709Z,50.78
2023-03-02T16:07:01.565Z,51.50
2023-03-02T16:11:13.310Z,52.19
2023-03-02T16:15:25.025Z,52.67
2023-03-02T16:19:37.759Z,53.18
2023-03-02T16:23:49.815Z,53.60
2023-03-02T16:28:03.041Z,54.10
2023-03-02T16:32:14.812Z,54.02
2023-03-02T16:36:26.477Z,54.33
2023-03-02T16:40:40.155Z,54.49
2023-03-02T16:44:51.901Z,54.43
2023-03-02T16:49:04.436Z,55.55
2023-03-02T16:53:16.089Z,55.79
2023-03-02T16:57:27.805Z,56.47
2023-03-02T17:01:39.560Z,56.73
2023-03-02T17:05:51.413Z,57.90
2023-03-02T17:10:04.879Z,58.01
2023-03-02T17:14:16.564Z,57.74
2023-03-02T17:18:29.130Z,58.60
2023-03-02T17:22:40.914Z,59.45
2023-03-02T17:26:52.989Z,61.31
2023-03-02T17:31:05.006Z,61.23
2023-03-02T17:35:16.819Z,62.94
2023-03-02T17:39:28.673Z,63.20
2023-03-02T17:43:41.887Z,64.44
2023-03-02T17:47:55.156Z,64.54
2023-03-02T17:52:07.051Z,65.79
2023-03-02T17:56:22.181Z,66.39
2023-03-02T18:00:33.868Z,66.81
2023-03-02T18:04:45.747Z,67.56
2023-03-02T18:08:57.585Z,68.12
2023-03-02T18:13:09.290Z,69.07
2023-03-02T18:17:21.009Z,69.17
2023-03-02T18:21:32.693Z,69.39
2023-03-02T18:25:44.369Z,69.68
2023-03-02T18:29:56.232Z,69.59
2023-03-02T18:34:07.998Z,70.41
2023-03-02T18:38:19.690Z,70.76
2023-03-02T18:42:31.409Z,71.47
2023-03-02T18:46:43.270Z,71.67
2023-03-02T18:50:55.620Z,71.46
2023-03-02T18:55:08.915Z,72.37
2023-03-02T18:59:20.575Z,73.21
2023-03-02T19:03:33.406Z,73.60
2023-03-02T19:07:47.430Z,73.77
2023-03-02T19:11:59.420Z,74.54
2023-03-02T19:16:11.373Z,74.96
2023-03-02T19:20:23.482Z,75.61
2023-03-02T19:24:35.548Z,75.48
2023-03-02T19:28:47.239Z,75.95
2023-03-02T19:32:59.070Z,76.72
2023-03-02T19:37:10.714Z,76.87
2023-03-02T19:41:22.993Z,77.81
2023-03-02T19:45:35.684Z,77.75
2023-03-02T19:49:48.907Z,78.70
2023-03-02T19:54:03.089Z,78.70
2023-03-02T19:58:21.343Z,78.78
2023-03-02T20:02:35.936Z,79.02
2023-03-02T20:06:47.703Z,79.27
2023-03-02T20:10:59.410Z,79.85
2023-03-02T20:15:12.247Z,80.46
2023-03-02T20:19:23.901Z,80.66
2023-03-02T20:23:35.664Z,80.59
2023-03-02T20:27:49.555Z,80.84
2023-03-02T20:32:02.560Z,80.26
2023-03-02T20:36:16.672Z,81.09
2023-03-02T20:40:29.643Z,80.63
2023-03-02T20:44:41.420Z,81.48
2023-03-02T20:48:53.469Z,82.08
2023-03-02T20:53:05.871Z,81.66
2023-03-02T20:57:20.475Z,82.24
2023-03-02T21:01:32.387Z,82.28
2023-03-02T21:05:44.777Z,82.56
2023-03-02T21:09:56.417Z,82.31
2023-03-02T21:14:08.296Z,82.29
2023-03-02T21:18:20.680Z,82.83
2023-03-02T21:22:32.385Z,82.69
2023-03-02T21:26:50.005Z,82.75
2023-03-02T21:31:01.742Z,82.30
2023-03-02T21:35:15.562Z,83.07
2023-03-02T21:39:27.304Z,83.08
2023-03-02T21:43:39.117Z,83.36
2023-03-02T21:47:51.223Z,83.33
2023-03-02T21:52:03.918Z,83.36
2023-03-02T21:56:22.145Z,83.38
2023-03-02T22:00:37.114Z,83.60
2023-03-02T22:04:48.785Z,83.24
2023-03-02T22:09:01.657Z,83.40
2023-03-02T22:13:13.213Z,83.61
2023-03-02T22:17:24.968Z,83.66
2023-03-02T22:21:38.686Z,83.40
2023-03-02T22:25:53.710Z,83.78
2023-03-02T22:30:23.226Z,83.41
2023-03-02T22:34:43.307Z,83.14
2023-03-02T22:38:56.925Z,82.83
2023-03-02T22:43:19.760Z,82.82
2023-03-02T22:47:32.181Z,83.37
2023-03-02T22:51:44.858Z,83.42
2023-03-02T22:56:14.806Z,83.48
2023-03-02T23:00:35.011Z,83.60
2023-03-02T23:04:48.728Z,84.01
2023-03-02T23:09:05.837Z,83.98
2023-03-02T23:13:19.960Z,84.09
2023-03-02T23:17:36.860Z,82.87
2023-03-02T23:21:49.669Z,83.39
2023-03-02T23:26:01.258Z,83.52
2023-03-02T23:30:13.776Z,83.63
2023-03-02T23:34:25.435Z,83.50
2023-03-02T23:38:37.471Z,83.13
2023-03-02T23:42:49.646Z,83.41
2023-03-02T23:47:01.449Z,83.38
2023-03-02T23:51:13.144Z,83.05
2023-03-02T23:55:24.708Z,83.06
2023-03-02T23:59:36.255Z,82.95
